Time;durP1;ratioP1;P1;durP2;ratioP2;P2;SDS_P1;SDS_P2;PMS_P1;PMS_P2;Temp;Humidity;BMP_temperature;BMP_pressure;BME280_temperature;BME280_humidity;BME280_pressure;Samples;Min_cycle;Max_cycle;Signal;HPM_P1;HPM_P2
2023/10/03 00:00:31;;;;;;;16.60;7.10;;;;;;;;;;4976903;28;20026;-63
2023/10/03 00:03:08;;;;;;;11.88;6.60;;;;;;;;;;4977238;28;20023;-63
2023/10/03 00:05:34;;;;;;;12.68;6.93;;;;;;;;;;4977267;28;20105;-64
2023/10/03 00:08:04;;;;;;;12.18;6.68;;;;;;;;;;4976529;28;20047;-63
2023/10/03 00:10:32;;;;;;;15.60;7.40;;;;;;;;;;4977954;28;20047;-64
2023/10/03 00:12:59;;;;;;;12.25;6.75;;;;;;;;;;4976827;28;20038;-68
2023/10/03 00:15:25;;;;;;;14.48;6.95;;;;;;;;;;4976775;28;20039;-66
2023/10/03 00:17:52;;;;;;;15.27;6.70;;;;;;;;;;4977001;28;20054;-63
2023/10/03 00:20:18;;;;;;;15.23;6.63;;;;;;;;;;4976911;28;20125;-63
2023/10/03 00:22:47;;;;;;;13.60;6.78;;;;;;;;;;4976776;28;20073;-63
2023/10/03 00:25:23;;;;;;;13.70;6.65;;;;;;;;;;4976079;28;20486;-63
2023/10/03 00:27:50;;;;;;;14.80;6.60;;;;;;;;;;4976565;28;20062;-63
2023/10/03 00:30:20;;;;;;;13.60;6.82;;;;;;;;;;4976755;28;20491;-63
2023/10/03 00:32:48;;;;;;;12.45;6.15;;;;;;;;;;4976544;28;20034;-63
2023/10/03 00:35:15;;;;;;;11.77;6.75;;;;;;;;;;4976586;28;20174;-63
2023/10/03 00:37:43;;;;;;;12.70;6.22;;;;;;;;;;4975228;28;20031;-63
2023/10/03 00:42:48;;;;;;;13.35;6.68;;;;;;;;;;4957056;29;20382;-63
2023/10/03 00:45:24;;;;;;;13.73;6.32;;;;;;;;;;4957161;29;20027;-63
2023/10/03 00:47:53;;;;;;;12.25;6.47;;;;;;;;;;4957099;28;20023;-64
2023/10/03 00:50:20;;;;;;;14.18;6.75;;;;;;;;;;4958678;28;20086;-63
2023/10/03 00:52:50;;;;;;;13.82;6.78;;;;;;;;;;4965089;28;20532;-64
2023/10/03 00:55:15;;;;;;;13.07;6.35;;;;;;;;;;4966467;28;20029;-64
2023/10/03 00:57:43;;;;;;;13.43;6.75;;;;;;;;;;4966269;28;20023;-63
2023/10/03 01:00:16;;;;;;;13.05;6.22;;;;;;;;;;4964799;28;20023;-66
2023/10/03 01:02:50;;;;;;;14.68;7.22;;;;;;;;;;4965554;28;20022;-64
2023/10/03 01:05:16;;;;;;;13.98;6.60;;;;;;;;;;4965585;28;20087;-63
2023/10/03 01:07:44;;;;;;;15.55;6.97;;;;;;;;;;4969712;28;20049;-63
2023/10/03 01:10:17;;;;;;;13.82;7.10;;;;;;;;;;4971275;28;20109;-63
2023/10/03 01:12:45;;;;;;;13.57;6.90;;;;;;;;;;4965085;28;20043;-64
2023/10/03 01:15:15;;;;;;;12.18;6.75;;;;;;;;;;4966883;28;20022;-64
2023/10/03 01:17:43;;;;;;;;;;;;;;;;;;4976255;28;20113;-65
2023/10/03 01:20:17;;;;;;;13.38;6.80;;;;;;;;;;4975656;28;19992;-63
2023/10/03 01:22:48;;;;;;;12.98;6.50;;;;;;;;;;4975635;28;20026;-64
2023/10/03 01:25:15;;;;;;;13.65;7.05;;;;;;;;;;4975625;28;20038;-65
2023/10/03 01:27:40;;;;;;;13.27;6.70;;;;;;;;;;4975412;28;20134;-64
2023/10/03 01:30:06;;;;;;;11.95;6.28;;;;;;;;;;4975622;28;20113;-63
2023/10/03 01:32:38;;;;;;;15.60;7.05;;;;;;;;;;4974257;28;20127;-63
2023/10/03 01:35:08;;;;;;;15.57;7.38;;;;;;;;;;4975562;28;20027;-64
2023/10/03 01:37:33;;;;;;;12.88;6.63;;;;;;;;;;4975484;28;20489;-64
2023/10/03 01:39:59;;;;;;;11.70;6.10;;;;;;;;;;4975294;28;20078;-64
2023/10/03 01:42:24;;;;;;;12.10;6.45;;;;;;;;;;4975183;28;20035;-63
2023/10/03 01:44:53;;;;;;;13.15;6.20;;;;;;;;;;4975432;28;20067;-64
2023/10/03 01:47:18;;;;;;;11.68;5.75;;;;;;;;;;4975329;28;20026;-63
2023/10/03 01:49:45;;;;;;;13.73;6.15;;;;;;;;;;4975181;28;20105;-64
2023/10/03 01:52:10;;;;;;;10.88;6.13;;;;;;;;;;4975240;28;20077;-63
2023/10/03 01:54:36;;;;;;;11.82;6.43;;;;;;;;;;4974874;28;20436;-63
2023/10/03 01:57:01;;;;;;;17.63;6.47;;;;;;;;;;4975127;28;20077;-64
2023/10/03 01:59:27;;;;;;;13.23;5.60;;;;;;;;;;4975211;28;20026;-65
2023/10/03 02:01:52;;;;;;;12.60;5.35;;;;;;;;;;4974996;28;20114;-64
2023/10/03 02:04:17;;;;;;;11.77;5.43;;;;;;;;;;4974898;28;20053;-64
2023/10/03 02:06:44;;;;;;;12.82;5.95;;;;;;;;;;4974591;28;20030;-64
2023/10/03 02:09:10;;;;;;;16.88;6.45;;;;;;;;;;4975503;28;20456;-69
2023/10/03 02:11:37;;;;;;;15.10;6.50;;;;;;;;;;4974681;28;20023;-69
2023/10/03 02:14:07;;;;;;;11.32;6.10;;;;;;;;;;4974692;28;20110;-64
2023/10/03 02:16:36;;;;;;;14.13;6.38;;;;;;;;;;4974725;28;20125;-62
2023/10/03 02:19:01;;;;;;;13.15;6.05;;;;;;;;;;4974727;28;20106;-63
2023/10/03 02:21:26;;;;;;;13.10;6.28;;;;;;;;;;4974690;28;20106;-64
2023/10/03 02:23:52;;;;;;;12.90;6.00;;;;;;;;;;4974326;28;20022;-63
2023/10/03 02:26:17;;;;;;;15.45;6.80;;;;;;;;;;4974630;28;20026;-62
2023/10/03 02:28:43;;;;;;;15.05;6.13;;;;;;;;;;4974582;28;20056;-65
2023/10/03 02:31:08;;;;;;;16.77;6.13;;;;;;;;;;4974394;28;20452;-64
2023/10/03 02:33:41;;;;;;;17.33;6.95;;;;;;;;;;4974380;28;20030;-62
2023/10/03 02:36:09;;;;;;;13.68;6.05;;;;;;;;;;4974553;28;20030;-62
2023/10/03 02:38:38;;;;;;;12.35;6.00;;;;;;;;;;4974113;28;20499;-62
2023/10/03 02:41:07;;;;;;;11.57;6.18;;;;;;;;;;4974342;28;20023;-64
2023/10/03 02:43:34;;;;;;;11.07;5.90;;;;;;;;;;4974474;28;20472;-62
2023/10/03 02:46:00;;;;;;;16.60;6.57;;;;;;;;;;4974220;28;20039;-65
2023/10/03 02:48:26;;;;;;;12.68;5.82;;;;;;;;;;4974107;28;20033;-64
2023/10/03 02:50:52;;;;;;;12.57;6.13;;;;;;;;;;4974300;28;20438;-63
2023/10/03 02:53:19;;;;;;;11.60;5.97;;;;;;;;;;4973875;28;20118;-62
2023/10/03 02:55:46;;;;;;;11.90;6.65;;;;;;;;;;4974093;28;20473;-64
2023/10/03 02:58:16;;;;;;;14.05;6.03;;;;;;;;;;4974124;28;20113;-62
2023/10/03 03:00:43;;;;;;;14.15;6.30;;;;;;;;;;4974123;28;20074;-63
2023/10/03 03:03:09;;;;;;;11.73;5.90;;;;;;;;;;4973886;28;20035;-62
2023/10/03 03:05:36;;;;;;;12.10;5.88;;;;;;;;;;4973903;28;20054;-63
2023/10/03 03:08:29;;;;;;;11.05;5.95;;;;;;;;;;4973428;28;20125;-62
2023/10/03 03:10:57;;;;;;;12.77;6.25;;;;;;;;;;4973612;28;20051;-62
2023/10/03 03:13:33;;;;;;;12.80;5.72;;;;;;;;;;4973936;28;20035;-63
2023/10/03 03:15:59;;;;;;;13.13;5.70;;;;;;;;;;4974010;28;20488;-63
2023/10/03 03:18:26;;;;;;;9.98;5.53;;;;;;;;;;4973962;28;20031;-62
2023/10/03 03:20:58;;;;;;;11.93;6.13;;;;;;;;;;4974081;28;20027;-62
2023/10/03 03:23:30;;;;;;;13.48;6.88;;;;;;;;;;4973520;28;20019;-62
2023/10/03 03:28:46;;;;;;;14.43;6.15;;;;;;;;;;4974220;28;20077;-63
2023/10/03 03:31:32;;;;;;;11.70;5.78;;;;;;;;;;4973911;28;20031;-63
2023/10/03 03:33:57;;;;;;;10.80;5.82;;;;;;;;;;4973874;28;20046;-63
2023/10/03 03:36:30;;;;;;;14.00;6.45;;;;;;;;;;4973561;28;20030;-63
2023/10/03 03:38:56;;;;;;;10.85;6.10;;;;;;;;;;4973840;28;20085;-63
2023/10/03 03:41:22;;;;;;;16.73;5.88;;;;;;;;;;4973722;28;20031;-62
2023/10/03 03:43:48;;;;;;;12.70;6.90;;;;;;;;;;4973689;28;20105;-62
2023/10/03 03:46:15;;;;;;;13.88;6.00;;;;;;;;;;4973767;28;20027;-64
2023/10/03 03:48:40;;;;;;;12.35;6.13;;;;;;;;;;4973682;28;20078;-63
2023/10/03 03:51:11;;;;;;;12.40;6.03;;;;;;;;;;4973376;28;20151;-62
2023/10/03 03:53:36;;;;;;;;;;;;;;;;;;4974016;28;20039;-63
2023/10/03 03:56:07;;;;;;;12.07;6.18;;;;;;;;;;4973626;28;19918;-63
2023/10/03 03:58:37;;;;;;;13.90;6.30;;;;;;;;;;4973630;28;20027;-63
2023/10/03 04:01:13;;;;;;;8.23;4.80;;;;;;;;;;4975911;28;20122;-64
2023/10/03 04:03:39;;;;;;;13.00;6.40;;;;;;;;;;4977148;28;20030;-62
2023/10/03 04:06:05;;;;;;;12.18;6.13;;;;;;;;;;4976744;28;20503;-63
2023/10/03 04:08:31;;;;;;;13.30;6.35;;;;;;;;;;4977721;28;20050;-62
2023/10/03 04:10:57;;;;;;;14.95;6.30;;;;;;;;;;4977083;28;20031;-62
2023/10/03 04:13:23;;;;;;;11.02;5.70;;;;;;;;;;4976904;28;20030;-63
2023/10/03 04:15:50;;;;;;;13.10;5.43;;;;;;;;;;4976950;28;20031;-63
2023/10/03 04:18:15;;;;;;;15.75;5.97;;;;;;;;;;4977056;28;20030;-62
2023/10/03 04:20:44;;;;;;;12.32;6.43;;;;;;;;;;4976485;28;20027;-63
2023/10/03 04:23:11;;;;;;;12.20;5.90;;;;;;;;;;4976608;28;20027;-63
2023/10/03 04:25:38;;;;;;;12.23;6.22;;;;;;;;;;4976597;28;20465;-62
2023/10/03 04:28:05;;;;;;;13.68;6.30;;;;;;;;;;4976520;28;20049;-63
2023/10/03 04:30:30;;;;;;;15.73;6.07;;;;;;;;;;4976438;28;20027;-63
2023/10/03 04:32:57;;;;;;;15.38;6.00;;;;;;;;;;4976542;28;20077;-64
2023/10/03 04:35:24;;;;;;;14.68;6.03;;;;;;;;;;4976278;28;20025;-63
2023/10/03 04:37:55;;;;;;;11.80;5.82;;;;;;;;;;4976294;28;20027;-63
2023/10/03 04:40:22;;;;;;;11.88;6.38;;;;;;;;;;4976453;28;20034;-63
2023/10/03 04:42:52;;;;;;;10.73;6.15;;;;;;;;;;4976305;28;20023;-62
2023/10/03 04:45:19;;;;;;;11.00;5.80;;;;;;;;;;4976292;28;20070;-62
2023/10/03 04:47:48;;;;;;;13.00;5.82;;;;;;;;;;4976251;28;20489;-63
2023/10/03 04:50:18;;;;;;;12.43;6.25;;;;;;;;;;4976023;28;20035;-64
2023/10/03 04:52:49;;;;;;;11.25;6.38;;;;;;;;;;4976138;28;20034;-63
2023/10/03 04:55:18;;;;;;;16.50;6.43;;;;;;;;;;4976060;28;20396;-63
2023/10/03 04:57:48;;;;;;;12.02;6.75;;;;;;;;;;4975983;28;20027;-64
2023/10/03 05:00:17;;;;;;;13.60;6.57;;;;;;;;;;4976018;28;20026;-63
2023/10/03 05:02:47;;;;;;;14.82;6.78;;;;;;;;;;4975799;28;20034;-67
2023/10/03 05:05:18;;;;;;;11.88;6.38;;;;;;;;;;4975880;28;20071;-68
2023/10/03 05:07:56;;;;;;;12.30;6.05;;;;;;;;;;4975434;28;20078;-68
2023/10/03 05:10:23;;;;;;;14.70;6.70;;;;;;;;;;4976795;28;20550;-65
2023/10/03 05:12:51;;;;;;;12.15;5.93;;;;;;;;;;4975743;28;20493;-64
2023/10/03 05:15:17;;;;;;;12.32;6.50;;;;;;;;;;4975764;28;20358;-66
2023/10/03 05:17:44;;;;;;;13.48;6.25;;;;;;;;;;4975618;28;20034;-62
2023/10/03 05:20:13;;;;;;;12.70;6.05;;;;;;;;;;4975798;28;20023;-64
2023/10/03 05:22:40;;;;;;;12.70;6.32;;;;;;;;;;4975385;28;20566;-64
2023/10/03 05:25:13;;;;;;;12.75;5.97;;;;;;;;;;4975574;28;20050;-63
2023/10/03 05:27:40;;;;;;;11.80;5.75;;;;;;;;;;4975544;28;20037;-66
2023/10/03 05:30:08;;;;;;;14.85;7.03;;;;;;;;;;4975488;28;20042;-63
2023/10/03 05:32:34;;;;;;;13.90;5.70;;;;;;;;;;4975170;28;20019;-64
2023/10/03 05:35:00;;;;;;;11.88;5.88;;;;;;;;;;4975464;28;20023;-64
2023/10/03 05:37:26;;;;;;;13.90;6.45;;;;;;;;;;4975392;28;20022;-66
2023/10/03 05:39:51;;;;;;;12.40;5.95;;;;;;;;;;4975267;28;20114;-65
2023/10/03 05:42:20;;;;;;;12.90;5.97;;;;;;;;;;4975166;28;20034;-63
2023/10/03 05:44:46;;;;;;;12.00;6.22;;;;;;;;;;4975215;28;20030;-64
2023/10/03 05:47:12;;;;;;;13.05;5.90;;;;;;;;;;4974926;28;20074;-67
2023/10/03 05:49:38;;;;;;;13.60;6.57;;;;;;;;;;4975195;28;20385;-66
2023/10/03 05:52:04;;;;;;;12.98;5.97;;;;;;;;;;4975226;28;20026;-67
2023/10/03 05:54:32;;;;;;;13.98;6.50;;;;;;;;;;4974926;28;20042;-66
2023/10/03 05:56:58;;;;;;;11.73;6.20;;;;;;;;;;4974879;28;20027;-69
2023/10/03 05:59:24;;;;;;;11.90;5.70;;;;;;;;;;4975014;28;20118;-64
2023/10/03 06:01:49;;;;;;;17.85;6.80;;;;;;;;;;4974666;28;20042;-67
2023/10/03 06:04:16;;;;;;;12.90;6.57;;;;;;;;;;4974877;28;20031;-64
2023/10/03 06:06:41;;;;;;;10.57;6.20;;;;;;;;;;4974357;28;20057;-65
2023/10/03 06:09:10;;;;;;;12.27;6.15;;;;;;;;;;4975425;28;20094;-70
2023/10/03 06:11:36;;;;;;;13.73;5.63;;;;;;;;;;4974709;28;20037;-64
2023/10/03 06:14:03;;;;;;;12.43;6.28;;;;;;;;;;4974693;28;20035;-65
2023/10/03 06:16:29;;;;;;;12.13;5.45;;;;;;;;;;4974495;28;20177;-69
2023/10/03 06:18:56;;;;;;;13.75;5.78;;;;;;;;;;4974734;28;20065;-68
2023/10/03 06:21:23;;;;;;;12.43;6.13;;;;;;;;;;4974835;28;20031;-70
2023/10/03 06:23:50;;;;;;;15.63;6.55;;;;;;;;;;4973528;28;20038;-66
2023/10/03 06:26:20;;;;;;;12.55;6.22;;;;;;;;;;4974520;28;20031;-64
2023/10/03 06:28:46;;;;;;;15.10;6.20;;;;;;;;;;4974515;28;20031;-64
2023/10/03 06:31:12;;;;;;;13.50;6.43;;;;;;;;;;4969309;28;20596;-64
2023/10/03 06:33:39;;;;;;;13.63;5.80;;;;;;;;;;4955115;28;20037;-70
2023/10/03 06:36:06;;;;;;;14.32;6.93;;;;;;;;;;4970257;28;20392;-64
2023/10/03 06:38:32;;;;;;;13.30;6.38;;;;;;;;;;4974471;28;20035;-65
2023/10/03 06:40:58;;;;;;;12.93;6.47;;;;;;;;;;4989820;28;20025;-64
2023/10/03 06:43:23;;;;;;;17.60;7.50;;;;;;;;;;4980913;28;20097;-63
2023/10/03 06:45:48;;;;;;;14.70;6.82;;;;;;;;;;4982724;28;20054;-63
2023/10/03 06:48:14;;;;;;;20.02;6.47;;;;;;;;;;4987532;28;20027;-63
2023/10/03 06:50:42;;;;;;;19.77;7.53;;;;;;;;;;4977082;28;20452;-63
2023/10/03 06:53:08;;;;;;;17.25;6.85;;;;;;;;;;4988059;28;20431;-70
2023/10/03 06:55:35;;;;;;;15.35;6.82;;;;;;;;;;4982311;28;20025;-64
2023/10/03 06:58:02;;;;;;;16.83;7.03;;;;;;;;;;4966850;28;20031;-64
2023/10/03 07:00:30;;;;;;;15.13;5.95;;;;;;;;;;4983182;28;20049;-65
2023/10/03 07:02:56;;;;;;;14.25;6.90;;;;;;;;;;4976829;28;20109;-64
2023/10/03 07:05:21;;;;;;;19.05;6.78;;;;;;;;;;4973680;28;20540;-63
2023/10/03 07:07:47;;;;;;;12.98;6.03;;;;;;;;;;4973330;28;20039;-70
2023/10/03 07:10:13;;;;;;;18.08;7.55;;;;;;;;;;4973478;28;20417;-64
2023/10/03 07:12:38;;;;;;;17.35;7.40;;;;;;;;;;4972444;28;20042;-65
2023/10/03 07:15:08;;;;;;;18.67;7.35;;;;;;;;;;4974641;28;20110;-63
2023/10/03 07:17:35;;;;;;;17.60;7.68;;;;;;;;;;4983253;28;20026;-64
2023/10/03 07:20:04;;;;;;;17.42;7.30;;;;;;;;;;4986580;28;20058;-67
2023/10/03 07:22:30;;;;;;;20.83;7.93;;;;;;;;;;4972237;28;20118;-68
2023/10/03 07:24:55;;;;;;;19.63;8.27;;;;;;;;;;4973461;28;20085;-64
2023/10/03 07:27:21;;;;;;;17.88;8.05;;;;;;;;;;4973450;28;20062;-68
2023/10/03 07:29:46;;;;;;;18.55;7.57;;;;;;;;;;4973337;28;20042;-69
2023/10/03 07:32:13;;;;;;;16.50;7.63;;;;;;;;;;4974346;28;20133;-64
2023/10/03 07:34:46;;;;;;;17.88;7.68;;;;;;;;;;4994569;28;20034;-65
2023/10/03 07:37:13;;;;;;;18.30;7.45;;;;;;;;;;4988456;28;20718;-61
2023/10/03 07:39:39;;;;;;;13.23;6.88;;;;;;;;;;4964202;28;20035;-65
2023/10/03 07:42:05;;;;;;;18.88;7.95;;;;;;;;;;4957967;28;20090;-62
2023/10/03 07:44:31;;;;;;;20.67;7.72;;;;;;;;;;4956312;29;20437;-63
2023/10/03 07:46:57;;;;;;;16.13;7.45;;;;;;;;;;4957587;28;20027;-61
2023/10/03 07:49:22;;;;;;;18.02;7.53;;;;;;;;;;4961708;28;20122;-62
2023/10/03 07:51:50;;;;;;;16.35;7.45;;;;;;;;;;4985707;28;20495;-61
2023/10/03 07:54:19;;;;;;;19.17;7.40;;;;;;;;;;4976965;28;20037;-69
2023/10/03 07:56:45;;;;;;;18.50;7.82;;;;;;;;;;4977060;28;20031;-65
2023/10/03 07:59:10;;;;;;;17.83;7.32;;;;;;;;;;4976303;28;20038;-63
2023/10/03 08:01:38;;;;;;;22.27;7.95;;;;;;;;;;4976930;28;20022;-63
2023/10/03 08:04:08;;;;;;;19.45;7.05;;;;;;;;;;4976673;28;20027;-68
2023/10/03 08:06:34;;;;;;;12.52;5.93;;;;;;;;;;4976907;28;20038;-63
2023/10/03 08:09:00;;;;;;;15.95;7.07;;;;;;;;;;4976274;28;20039;-64
2023/10/03 08:11:30;;;;;;;16.90;7.10;;;;;;;;;;4976708;28;20110;-63
2023/10/03 08:14:00;;;;;;;14.52;7.00;;;;;;;;;;4976706;28;20030;-63
2023/10/03 08:16:34;;;;;;;18.55;7.30;;;;;;;;;;4976924;28;20030;-63
2023/10/03 08:19:01;;;;;;;18.88;7.80;;;;;;;;;;4976724;28;20101;-64
2023/10/03 08:21:28;;;;;;;18.30;7.25;;;;;;;;;;4976654;28;20169;-64
2023/10/03 08:23:58;;;;;;;14.65;6.68;;;;;;;;;;4976193;28;20050;-63
2023/10/03 08:26:28;;;;;;;19.35;7.35;;;;;;;;;;4976402;28;20484;-63
2023/10/03 08:28:59;;;;;;;13.88;6.43;;;;;;;;;;4976429;28;20039;-63
2023/10/03 08:31:28;;;;;;;15.13;6.55;;;;;;;;;;4976404;28;20035;-63
2023/10/03 08:33:57;;;;;;;18.27;7.40;;;;;;;;;;4976252;28;20026;-67
2023/10/03 08:36:31;;;;;;;16.67;7.85;;;;;;;;;;4976547;28;20261;-64
2023/10/03 08:39:12;;;;;;;18.17;8.27;;;;;;;;;;4976354;28;20109;-65
2023/10/03 08:42:15;;;;;;;18.77;8.35;;;;;;;;;;4975943;28;20166;-65
2023/10/03 08:44:53;;;;;;;14.93;7.45;;;;;;;;;;4976121;28;20030;-63
2023/10/03 08:47:21;;;;;;;20.38;8.00;;;;;;;;;;4975242;28;20035;-62
2023/10/03 08:49:56;;;;;;;19.90;8.27;;;;;;;;;;4975605;28;20113;-64
2023/10/03 08:52:38;;;;;;;23.17;8.68;;;;;;;;;;4975834;28;20030;-62
2023/10/03 08:55:07;;;;;;;21.48;9.00;;;;;;;;;;4975699;28;20119;-63
2023/10/03 08:57:32;;;;;;;19.48;8.07;;;;;;;;;;4976011;28;20030;-65
2023/10/03 08:59:59;;;;;;;21.92;8.77;;;;;;;;;;4965006;28;20493;-64
2023/10/03 09:02:27;;;;;;;22.08;8.65;;;;;;;;;;4956520;28;20397;-62
2023/10/03 09:04:53;;;;;;;19.98;8.20;;;;;;;;;;4956703;29;20131;-62
2023/10/03 09:07:19;;;;;;;20.27;8.70;;;;;;;;;;4956447;28;20504;-62
2023/10/03 09:09:45;;;;;;;20.25;8.02;;;;;;;;;;4975416;28;20035;-63
2023/10/03 09:12:12;;;;;;;19.38;8.23;;;;;;;;;;4975579;28;20027;-65
2023/10/03 09:14:38;;;;;;;20.98;8.63;;;;;;;;;;4975609;28;20216;-66
2023/10/03 09:17:05;;;;;;;19.77;8.85;;;;;;;;;;4975552;28;20038;-62
2023/10/03 09:19:44;;;;;;;18.80;8.65;;;;;;;;;;4975579;28;20023;-62
2023/10/03 09:22:15;;;;;;;23.30;9.47;;;;;;;;;;4994111;28;20089;-64
2023/10/03 09:24:46;;;;;;;19.40;9.13;;;;;;;;;;4967091;28;20051;-65
2023/10/03 09:27:17;;;;;;;20.48;8.20;;;;;;;;;;4975310;28;20041;-62
2023/10/03 09:29:45;;;;;;;22.35;8.48;;;;;;;;;;4975349;28;20057;-63
2023/10/03 09:32:15;;;;;;;20.98;8.57;;;;;;;;;;4974817;28;20027;-62
2023/10/03 09:34:46;;;;;;;22.25;9.23;;;;;;;;;;4974936;28;20058;-62
2023/10/03 09:37:12;;;;;;;22.00;9.55;;;;;;;;;;4973621;28;20023;-62
2023/10/03 09:39:51;;;;;;;20.80;9.20;;;;;;;;;;4975201;28;20030;-63
2023/10/03 09:42:18;;;;;;;21.10;8.13;;;;;;;;;;4975287;28;20097;-62
2023/10/03 09:44:48;;;;;;;28.20;11.45;;;;;;;;;;4975335;28;20122;-62
2023/10/03 09:47:18;;;;;;;29.90;10.48;;;;;;;;;;4975091;28;20026;-64
2023/10/03 09:49:47;;;;;;;31.05;11.80;;;;;;;;;;4974891;28;20046;-62
2023/10/03 09:52:25;;;;;;;28.77;9.67;;;;;;;;;;4974715;28;20073;-62
2023/10/03 09:54:54;;;;;;;30.13;15.07;;;;;;;;;;4974741;28;20053;-64
2023/10/03 09:57:24;;;;;;;33.45;13.40;;;;;;;;;;4974043;28;20098;-64
2023/10/03 09:59:50;;;;;;;31.50;13.02;;;;;;;;;;4964914;28;20106;-66
2023/10/03 10:02:37;;;;;;;31.08;10.85;;;;;;;;;;4955292;28;20032;-63
2023/10/03 10:05:19;;;;;;;21.30;9.02;;;;;;;;;;4955408;28;20038;-64
2023/10/03 10:08:06;;;;;;;21.65;9.02;;;;;;;;;;4958470;28;20046;-64
2023/10/03 10:10:35;;;;;;;19.52;7.90;;;;;;;;;;4974295;28;20031;-64
2023/10/03 10:13:34;;;;;;;20.55;8.43;;;;;;;;;;4974400;28;20037;-62
2023/10/03 10:16:07;;;;;;;24.08;9.20;;;;;;;;;;4974363;28;20034;-62
2023/10/03 10:18:44;;;;;;;20.90;9.40;;;;;;;;;;4974026;28;20027;-62
2023/10/03 10:21:25;;;;;;;17.70;8.38;;;;;;;;;;4974393;28;20027;-65
2023/10/03 10:24:25;;;;;;;18.73;9.77;;;;;;;;;;4973725;28;20480;-66
2023/10/03 10:26:54;;;;;;;28.02;9.98;;;;;;;;;;4933796;29;20046;-63
2023/10/03 10:29:24;;;;;;;22.08;9.27;;;;;;;;;;4933756;29;20027;-65
2023/10/03 10:32:09;;;;;;;23.08;9.63;;;;;;;;;;4933687;29;20027;-64
2023/10/03 10:34:40;;;;;;;21.92;9.98;;;;;;;;;;4921423;29;20155;-64
2023/10/03 10:37:18;;;;;;;22.45;9.45;;;;;;;;;;4914647;29;20036;-62
2023/10/03 10:40:09;;;;;;;21.02;9.45;;;;;;;;;;4913263;29;20668;-62
2023/10/03 10:42:59;;;;;;;26.45;9.70;;;;;;;;;;4913916;29;20060;-62
2023/10/03 10:45:42;;;;;;;19.73;9.07;;;;;;;;;;4913373;29;20036;-62
2023/10/03 10:48:08;;;;;;;18.40;8.63;;;;;;;;;;4914476;29;20040;-62
2023/10/03 10:51:04;;;;;;;19.88;9.15;;;;;;;;;;4913461;29;20208;-62
2023/10/03 10:53:41;;;;;;;19.65;9.02;;;;;;;;;;4914475;29;20068;-62
2023/10/03 10:56:08;;;;;;;23.27;9.55;;;;;;;;;;4914881;29;20071;-64
2023/10/03 10:58:45;;;;;;;19.30;9.70;;;;;;;;;;4914647;29;20106;-69
2023/10/03 11:01:12;;;;;;;20.52;9.18;;;;;;;;;;4912630;29;20494;-62
2023/10/03 11:03:37;;;;;;;26.95;9.50;;;;;;;;;;4960693;28;20023;-62
2023/10/03 11:06:12;;;;;;;23.65;9.63;;;;;;;;;;4970470;28;20027;-63
2023/10/03 11:08:48;;;;;;;22.52;10.45;;;;;;;;;;4971991;28;20117;-67
2023/10/03 11:11:15;;;;;;;25.70;9.95;;;;;;;;;;4972124;28;20019;-62
2023/10/03 11:13:49;;;;;;;18.60;8.25;;;;;;;;;;4956810;28;20505;-62
2023/10/03 11:16:21;;;;;;;17.88;8.68;;;;;;;;;;4957533;28;20469;-62
2023/10/03 11:18:47;;;;;;;23.08;8.98;;;;;;;;;;4958088;28;20023;-62
2023/10/03 11:21:13;;;;;;;26.92;9.45;;;;;;;;;;4957139;29;20030;-62
2023/10/03 11:23:38;;;;;;;23.25;9.57;;;;;;;;;;4969651;28;20035;-62
2023/10/03 11:26:05;;;;;;;27.88;9.27;;;;;;;;;;4977833;28;20081;-65
2023/10/03 11:28:45;;;;;;;24.08;9.45;;;;;;;;;;4976487;28;20042;-62
2023/10/03 11:31:13;;;;;;;19.30;7.88;;;;;;;;;;4977760;28;20027;-62
2023/10/03 11:33:47;;;;;;;24.10;9.80;;;;;;;;;;4977672;28;20603;-62
2023/10/03 11:36:14;;;;;;;23.60;8.88;;;;;;;;;;4977490;28;20034;-63
2023/10/03 11:38:50;;;;;;;20.35;8.32;;;;;;;;;;4977576;28;20145;-62
2023/10/03 11:41:32;;;;;;;18.63;7.55;;;;;;;;;;4977610;28;20057;-63
2023/10/03 11:43:57;;;;;;;20.63;9.07;;;;;;;;;;4977485;28;20023;-62
2023/10/03 11:46:23;;;;;;;26.83;8.98;;;;;;;;;;4977303;28;20019;-62
2023/10/03 11:48:58;;;;;;;20.35;8.25;;;;;;;;;;4977305;28;20026;-63
2023/10/03 11:51:25;;;;;;;18.77;8.05;;;;;;;;;;4977325;28;20038;-62
2023/10/03 11:53:51;;;;;;;19.15;7.88;;;;;;;;;;4977283;28;20093;-63
2023/10/03 11:56:17;;;;;;;23.58;8.57;;;;;;;;;;4977470;28;20078;-66
2023/10/03 11:58:42;;;;;;;18.23;8.00;;;;;;;;;;4981540;28;20022;-63
2023/10/03 12:01:08;;;;;;;18.55;7.25;;;;;;;;;;4978004;28;20043;-63
2023/10/03 12:03:33;;;;;;;17.38;7.95;;;;;;;;;;4977076;28;20361;-62
2023/10/03 12:05:59;;;;;;;17.20;7.65;;;;;;;;;;4975991;28;20133;-62
2023/10/03 12:08:24;;;;;;;18.38;8.15;;;;;;;;;;4975500;28;20452;-62
2023/10/03 12:10:50;;;;;;;17.42;7.55;;;;;;;;;;4976981;28;20026;-62
2023/10/03 12:13:15;;;;;;;19.63;7.63;;;;;;;;;;4976778;28;20469;-63
2023/10/03 12:15:42;;;;;;;17.25;7.68;;;;;;;;;;4976982;28;20034;-63
2023/10/03 12:18:08;;;;;;;19.73;7.05;;;;;;;;;;4976445;28;20034;-63
2023/10/03 12:20:34;;;;;;;17.52;6.80;;;;;;;;;;4975780;28;20031;-62
2023/10/03 12:23:00;;;;;;;22.58;6.85;;;;;;;;;;4976665;28;20026;-63
2023/10/03 12:25:27;;;;;;;18.05;7.55;;;;;;;;;;4976686;28;20465;-62
2023/10/03 12:27:52;;;;;;;33.22;6.97;;;;;;;;;;4976497;28;20033;-63
2023/10/03 12:30:18;;;;;;;14.30;5.68;;;;;;;;;;4976465;28;20026;-62
2023/10/03 12:32:48;;;;;;;18.95;6.40;;;;;;;;;;4976317;28;20027;-64
2023/10/03 12:35:15;;;;;;;16.90;5.78;;;;;;;;;;4976798;28;20030;-63
2023/10/03 12:37:46;;;;;;;22.20;6.82;;;;;;;;;;4976464;28;20039;-62
2023/10/03 12:40:15;;;;;;;19.23;7.43;;;;;;;;;;4976646;28;20376;-66
2023/10/03 12:42:46;;;;;;;21.30;6.73;;;;;;;;;;4976460;28;20031;-65
2023/10/03 12:45:15;;;;;;;26.27;6.82;;;;;;;;;;4976252;28;20019;-64
2023/10/03 12:47:46;;;;;;;24.40;7.03;;;;;;;;;;4976147;28;20023;-62
2023/10/03 12:50:13;;;;;;;19.83;7.45;;;;;;;;;;4968983;28;20042;-70
2023/10/03 12:52:39;;;;;;;17.83;6.68;;;;;;;;;;4964792;28;20100;-70
2023/10/03 12:55:07;;;;;;;16.25;6.30;;;;;;;;;;4964412;28;20027;-64
2023/10/03 12:57:32;;;;;;;20.10;6.88;;;;;;;;;;4976050;28;20030;-65
2023/10/03 12:59:57;;;;;;;17.17;6.35;;;;;;;;;;4972079;28;20450;-62
2023/10/03 13:02:23;;;;;;;20.13;6.97;;;;;;;;;;4965259;28;20089;-66
2023/10/03 13:04:48;;;;;;;21.08;6.43;;;;;;;;;;4966618;28;20473;-64
2023/10/03 13:07:18;;;;;;;15.43;6.10;;;;;;;;;;4966240;28;20512;-63
2023/10/03 13:09:44;;;;;;;17.75;6.38;;;;;;;;;;4968480;28;20034;-64
2023/10/03 13:12:10;;;;;;;16.60;6.82;;;;;;;;;;4965623;28;20020;-64
2023/10/03 13:14:35;;;;;;;14.38;6.40;;;;;;;;;;4965037;28;20030;-62
2023/10/03 13:17:01;;;;;;;16.65;6.80;;;;;;;;;;4967204;28;20472;-66
2023/10/03 13:19:31;;;;;;;14.15;6.60;;;;;;;;;;4969391;28;20500;-65
2023/10/03 13:21:59;;;;;;;;;;;;;;;;;;4964879;28;20106;-66
2023/10/03 13:24:25;;;;;;;17.38;6.70;;;;;;;;;;4966928;28;19910;-62
2023/10/03 13:26:54;;;;;;;16.50;6.40;;;;;;;;;;4969911;28;20039;-66
2023/10/03 13:29:20;;;;;;;12.70;6.43;;;;;;;;;;4964199;28;20038;-64
2023/10/03 13:31:46;;;;;;;17.95;6.88;;;;;;;;;;4964819;28;20448;-63
2023/10/03 13:34:12;;;;;;;15.00;6.63;;;;;;;;;;4965619;28;20023;-71
2023/10/03 13:36:39;;;;;;;20.00;6.93;;;;;;;;;;4963973;28;20385;-62
2023/10/03 13:39:06;;;;;;;19.30;7.50;;;;;;;;;;4972468;28;20042;-64
2023/10/03 13:41:34;;;;;;;18.00;6.28;;;;;;;;;;4975351;28;20033;-62
2023/10/03 13:44:00;;;;;;;19.45;6.57;;;;;;;;;;4975083;28;20030;-66
2023/10/03 13:46:25;;;;;;;14.02;5.65;;;;;;;;;;4973550;28;20037;-63
2023/10/03 13:48:52;;;;;;;15.38;6.35;;;;;;;;;;4974822;28;20041;-63
2023/10/03 13:51:17;;;;;;;15.20;6.93;;;;;;;;;;4975181;28;20031;-67
2023/10/03 13:53:43;;;;;;;21.40;6.78;;;;;;;;;;4974806;28;20094;-62
2023/10/03 13:56:09;;;;;;;16.83;6.55;;;;;;;;;;4957954;28;20035;-63
2023/10/03 13:58:36;;;;;;;18.80;6.50;;;;;;;;;;4955431;28;20031;-63
2023/10/03 14:01:03;;;;;;;12.48;5.57;;;;;;;;;;4993698;28;20492;-62
2023/10/03 14:03:31;;;;;;;17.25;6.38;;;;;;;;;;4994278;28;20034;-63
2023/10/03 14:05:57;;;;;;;14.25;5.53;;;;;;;;;;4994260;28;20041;-62
2023/10/03 14:08:23;;;;;;;18.40;5.82;;;;;;;;;;4984937;28;20038;-63
2023/10/03 14:10:49;;;;;;;14.07;6.28;;;;;;;;;;4974683;28;20027;-64
2023/10/03 14:13:16;;;;;;;14.45;6.30;;;;;;;;;;4974652;28;20118;-63
2023/10/03 14:15:43;;;;;;;14.93;5.15;;;;;;;;;;4974373;28;20029;-62
2023/10/03 14:18:10;;;;;;;15.63;5.68;;;;;;;;;;4974481;28;20019;-62
2023/10/03 14:20:38;;;;;;;12.80;4.97;;;;;;;;;;4974463;28;20027;-63
2023/10/03 14:23:04;;;;;;;11.70;5.47;;;;;;;;;;4974525;28;20023;-63
2023/10/03 14:25:30;;;;;;;17.17;6.50;;;;;;;;;;4974408;28;20031;-62
2023/10/03 14:27:55;;;;;;;14.52;5.88;;;;;;;;;;4974238;28;20027;-63
2023/10/03 14:30:21;;;;;;;14.68;5.35;;;;;;;;;;4973661;28;20029;-63
2023/10/03 14:32:47;;;;;;;17.38;5.88;;;;;;;;;;4974010;28;20073;-62
2023/10/03 14:35:13;;;;;;;13.60;5.80;;;;;;;;;;4974342;28;20022;-62
2023/10/03 14:37:38;;;;;;;11.75;5.82;;;;;;;;;;4974207;28;20117;-62
2023/10/03 14:40:09;;;;;;;12.55;5.95;;;;;;;;;;4974243;28;20034;-62
2023/10/03 14:42:36;;;;;;;19.52;5.95;;;;;;;;;;4974264;28;20046;-62
2023/10/03 14:45:03;;;;;;;13.77;5.63;;;;;;;;;;4973360;28;20503;-63